Time;durP1;ratioP1;P1;durP2;ratioP2;P2;SDS_P1;SDS_P2;PMS_P1;PMS_P2;Temp;Humidity;BMP_temperature;BMP_pressure;BME280_temperature;BME280_humidity;BME280_pressure;Samples;Min_cycle;Max_cycle;Signal;HPM_P1;HPM_P2
2022/08/03 00:00:00;;;;;;;6.83;4.90;;;20.00;99.90;;;;;;4136365;28;20204;-79
2022/08/03 00:02:02;;;;;;;7.17;5.40;;;20.00;99.90;;;;;;4136423;28;20276;-79
2022/08/03 00:04:05;;;;;;;7.30;5.10;;;20.00;99.90;;;;;;4138315;28;20211;-79
2022/08/03 00:06:07;;;;;;;7.30;5.03;;;20.00;99.90;;;;;;4142708;28;20212;-79
2022/08/03 00:08:09;;;;;;;7.33;4.80;;;19.90;99.90;;;;;;4140835;28;20212;-79
2022/08/03 00:10:12;;;;;;;8.77;5.00;;;19.90;99.90;;;;;;4139259;28;20216;-79
2022/08/03 00:12:16;;;;;;;8.23;4.63;;;19.80;99.90;;;;;;4143116;28;20692;-79
2022/08/03 00:14:18;;;;;;;7.13;4.20;;;19.80;99.90;;;;;;4143761;28;20279;-79
2022/08/03 00:16:20;;;;;;;7.10;4.63;;;19.80;99.90;;;;;;4144353;28;20210;-79
2022/08/03 00:18:22;;;;;;;6.40;4.10;;;19.70;99.90;;;;;;4144118;28;20724;-79
2022/08/03 00:20:24;;;;;;;6.57;4.50;;;19.70;99.90;;;;;;4131532;28;20947;-79
2022/08/03 00:22:26;;;;;;;7.67;4.30;;;19.80;99.90;;;;;;4146178;28;20233;-79
2022/08/03 00:24:29;;;;;;;6.20;4.23;;;19.70;99.90;;;;;;4153974;28;20219;-79
2022/08/03 00:26:31;;;;;;;6.70;3.77;;;19.70;99.90;;;;;;4138163;28;20216;-79
2022/08/03 00:28:35;;;;;;;5.43;4.10;;;19.60;99.90;;;;;;4150870;28;20200;-79
2022/08/03 00:30:37;;;;;;;5.10;4.00;;;19.60;99.90;;;;;;4146350;28;20215;-79
2022/08/03 00:32:39;;;;;;;5.20;4.07;;;19.60;99.90;;;;;;4139942;28;20235;-79
2022/08/03 00:34:41;;;;;;;5.70;4.07;;;19.60;99.90;;;;;;4141276;28;20657;-79
2022/08/03 00:36:42;;;;;;;6.57;4.10;;;19.60;99.90;;;;;;4141806;28;20678;-79
2022/08/03 00:38:44;;;;;;;6.27;4.00;;;19.60;99.90;;;;;;4129266;28;20231;-79
2022/08/03 00:40:46;;;;;;;4.70;3.70;;;19.50;99.90;;;;;;4135762;28;20215;-79
2022/08/03 00:42:53;;;;;;;4.73;3.73;;;19.50;99.90;;;;;;4141613;28;20218;-79
2022/08/03 00:44:56;;;;;;;6.20;4.00;;;19.50;99.90;;;;;;4104559;28;20248;-79
2022/08/03 00:46:58;;;;;;;5.40;4.27;;;19.40;99.90;;;;;;4119836;28;20311;-79
2022/08/03 00:49:00;;;;;;;6.10;4.00;;;19.40;99.90;;;;;;4135735;28;20202;-79
2022/08/03 00:51:02;;;;;;;5.87;3.73;;;19.40;99.90;;;;;;4134795;28;20307;-79
2022/08/03 00:53:06;;;;;;;4.83;3.80;;;19.40;99.90;;;;;;4139678;28;20214;-79
2022/08/03 00:55:09;;;;;;;6.73;3.93;;;19.30;99.90;;;;;;4138288;28;20675;-79
2022/08/03 00:57:11;;;;;;;8.07;3.70;;;19.30;99.90;;;;;;4134685;28;20286;-79
2022/08/03 00:59:14;;;;;;;5.20;3.60;;;19.30;99.90;;;;;;4126677;28;20246;-79
2022/08/03 01:01:17;;;;;;;5.80;4.50;;;19.20;99.90;;;;;;4134462;28;20334;-79
2022/08/03 01:03:22;;;;;;;4.67;3.73;;;19.20;99.90;;;;;;4119386;28;20233;-79
2022/08/03 01:05:25;;;;;;;5.63;3.90;;;19.20;99.90;;;;;;4129281;28;20218;-80
2022/08/03 01:07:37;;;;;;;4.57;3.70;;;19.20;99.90;;;;;;4139427;28;20338;-82
2022/08/03 01:09:53;;;;;;;7.33;3.87;;;19.10;99.90;;;;;;4121822;28;20227;-82
2022/08/03 01:12:01;;;;;;;5.20;3.93;;;19.00;99.90;;;;;;4125230;28;20243;-82
2022/08/03 01:14:09;;;;;;;5.33;3.90;;;19.10;99.90;;;;;;4141046;28;20298;-83
2022/08/03 01:16:17;;;;;;;4.70;3.60;;;19.00;99.90;;;;;;4135532;28;20236;-82
2022/08/03 01:18:28;;;;;;;5.73;3.80;;;19.10;99.90;;;;;;4139609;28;20302;-81
2022/08/03 01:20:34;;;;;;;4.90;3.60;;;19.10;99.90;;;;;;4139279;28;20207;-80
2022/08/03 01:23:10;;;;;;;5.20;3.83;;;19.00;99.90;;;;;;4144276;28;20265;-81
2022/08/03 01:25:24;;;;;;;6.07;3.73;;;19.00;99.90;;;;;;4124018;28;20221;-80
2022/08/03 01:27:31;;;;;;;6.40;4.30;;;19.00;99.90;;;;;;4142237;28;20283;-80
2022/08/03 01:29:51;;;;;;;5.73;3.87;;;19.00;99.90;;;;;;4121564;28;20243;-82
2022/08/03 01:31:58;;;;;;;5.77;4.23;;;19.00;99.90;;;;;;4124730;28;20236;-81
2022/08/03 01:34:05;;;;;;;4.67;3.20;;;18.90;99.90;;;;;;4121666;28;20217;-81
2022/08/03 01:36:10;;;;;;;4.67;3.00;;;18.90;99.90;;;;;;4141694;28;20211;-80
2022/08/03 01:38:14;;;;;;;6.40;3.87;;;18.90;99.90;;;;;;4123904;28;20255;-81
2022/08/03 01:40:19;;;;;;;5.00;3.30;;;18.90;99.90;;;;;;4139767;28;20224;-80
2022/08/03 01:42:22;;;;;;;5.73;3.80;;;18.90;99.90;;;;;;4140944;28;20243;-80
2022/08/03 01:44:25;;;;;;;5.90;3.77;;;18.90;99.90;;;;;;4140903;28;20204;-81
2022/08/03 01:46:31;;;;;;;5.53;3.90;;;18.90;99.90;;;;;;4122961;28;20212;-81
2022/08/03 01:48:36;;;;;;;4.80;3.40;;;18.90;99.90;;;;;;4146986;28;20210;-83
2022/08/03 01:50:40;;;;;;;4.70;3.47;;;18.90;99.90;;;;;;4132307;28;20252;-84
2022/08/03 01:52:43;;;;;;;5.20;3.73;;;18.90;99.90;;;;;;4153122;28;20232;-82
2022/08/03 01:54:51;;;;;;;5.70;3.57;;;18.90;99.90;;;;;;4143752;28;20237;-80
2022/08/03 01:56:54;;;;;;;4.90;3.83;;;18.80;99.90;;;;;;4146608;28;20629;-81
2022/08/03 01:59:00;;;;;;;6.80;3.73;;;18.80;99.90;;;;;;4146217;28;20310;-81
2022/08/03 02:01:03;;;;;;;4.73;3.70;;;18.80;99.90;;;;;;4132390;28;20241;-82
2022/08/03 02:03:08;;;;;;;6.03;3.90;;;18.80;99.90;;;;;;4160264;28;20269;-83
2022/08/03 02:05:12;;;;;;;5.80;3.83;;;18.80;99.90;;;;;;4141742;28;20222;-83
2022/08/03 02:07:15;;;;;;;4.73;3.57;;;18.80;99.90;;;;;;4160013;28;20272;-81
2022/08/03 02:09:20;;;;;;;3.90;3.50;;;18.70;99.90;;;;;;4162670;28;20265;-81
2022/08/03 02:11:22;;;;;;;6.43;4.30;;;18.70;99.90;;;;;;4130658;28;20255;-80
2022/08/03 02:13:26;;;;;;;5.97;3.60;;;18.70;99.90;;;;;;4147995;28;20738;-80
2022/08/03 02:15:29;;;;;;;4.43;3.90;;;18.70;99.90;;;;;;4145926;28;20798;-80
2022/08/03 02:17:34;;;;;;;4.43;3.40;;;18.70;99.90;;;;;;4148500;28;20234;-82
2022/08/03 02:19:38;;;;;;;6.33;3.97;;;18.70;99.90;;;;;;4124397;28;20234;-81
2022/08/03 02:21:43;;;;;;;4.40;3.70;;;18.70;99.90;;;;;;4151306;28;20271;-82
2022/08/03 02:23:45;;;;;;;6.30;3.60;;;18.60;99.90;;;;;;4132445;28;20257;-81
2022/08/03 02:25:52;;;;;;;4.57;3.73;;;18.60;99.90;;;;;;4149623;28;20259;-80
2022/08/03 02:27:58;;;;;;;6.20;4.03;;;18.60;99.90;;;;;;4133996;28;20250;-80
2022/08/03 02:30:04;;;;;;;6.23;4.00;;;18.60;99.90;;;;;;4145175;28;20657;-80
2022/08/03 02:32:07;;;;;;;4.60;3.80;;;18.60;99.90;;;;;;4148978;28;20316;-81
2022/08/03 02:34:13;;;;;;;7.50;3.80;;;18.60;99.90;;;;;;4146550;28;20307;-82
2022/08/03 02:36:21;;;;;;;5.40;3.80;;;18.50;99.90;;;;;;4148068;28;20223;-80
2022/08/03 02:38:28;;;;;;;4.37;3.37;;;18.50;99.90;;;;;;4112667;28;20219;-81
2022/08/03 02:40:31;;;;;;;4.50;3.67;;;18.50;99.90;;;;;;4149165;28;20305;-80
2022/08/03 02:42:36;;;;;;;4.87;3.60;;;18.50;99.90;;;;;;4146392;28;20321;-81
2022/08/03 02:44:38;;;;;;;5.13;3.70;;;18.40;99.90;;;;;;4147286;28;20224;-82
2022/08/03 02:46:43;;;;;;;6.10;3.57;;;18.40;99.90;;;;;;4141454;28;20273;-80
2022/08/03 02:48:47;;;;;;;8.73;4.00;;;18.40;99.90;;;;;;4117567;28;20271;-80
2022/08/03 02:50:53;;;;;;;4.80;3.63;;;18.30;99.90;;;;;;4149450;28;21126;-81
2022/08/03 02:52:58;;;;;;;5.30;3.80;;;18.30;99.90;;;;;;4143971;28;20670;-80
2022/08/03 02:55:04;;;;;;;6.07;3.70;;;18.30;99.90;;;;;;4152392;28;20585;-82
2022/08/03 02:57:08;;;;;;;5.97;4.00;;;18.30;99.90;;;;;;4145801;28;20229;-80
2022/08/03 02:59:12;;;;;;;6.70;3.93;;;18.20;99.90;;;;;;4151435;28;20256;-80
2022/08/03 03:01:14;;;;;;;4.57;3.60;;;18.20;99.90;;;;;;4129158;28;20277;-82
2022/08/03 03:03:16;;;;;;;5.37;3.90;;;18.20;99.90;;;;;;4127199;28;20300;-82
2022/08/03 03:05:18;;;;;;;5.60;4.47;;;18.20;99.90;;;;;;4126415;28;20214;-83
2022/08/03 03:07:20;;;;;;;3.97;3.47;;;18.20;99.90;;;;;;4130038;28;20308;-82
2022/08/03 03:09:24;;;;;;;5.47;3.90;;;18.20;99.90;;;;;;4149065;28;20209;-82
2022/08/03 03:11:27;;;;;;;5.03;3.90;;;18.20;99.90;;;;;;4120973;28;20703;-80
2022/08/03 03:13:30;;;;;;;4.90;3.90;;;18.20;99.90;;;;;;4125342;28;20620;-81
2022/08/03 03:15:36;;;;;;;6.23;4.00;;;18.10;99.90;;;;;;4140138;28;20678;-81
2022/08/03 03:17:38;;;;;;;5.70;3.87;;;18.10;99.90;;;;;;4146112;28;20619;-80
2022/08/03 03:19:44;;;;;;;5.20;3.90;;;18.10;99.90;;;;;;4130552;28;20248;-81
2022/08/03 03:21:46;;;;;;;5.93;4.50;;;18.10;99.90;;;;;;4126634;28;20225;-80
2022/08/03 03:23:50;;;;;;;4.83;4.10;;;18.10;99.90;;;;;;4140217;28;20244;-80
2022/08/03 03:25:54;;;;;;;5.63;4.30;;;18.00;99.90;;;;;;4150220;28;20585;-81
2022/08/03 03:27:57;;;;;;;6.87;4.43;;;18.00;99.90;;;;;;4146672;28;20209;-80
2022/08/03 03:29:59;;;;;;;6.47;4.27;;;18.00;99.90;;;;;;4129694;28;20269;-84
2022/08/03 03:32:01;;;;;;;5.73;4.27;;;18.00;99.90;;;;;;4153892;28;20235;-81
2022/08/03 03:34:04;;;;;;;5.77;4.27;;;18.00;99.90;;;;;;4133046;28;20221;-83
2022/08/03 03:36:07;;;;;;;6.10;4.60;;;18.00;99.90;;;;;;4148928;28;20303;-82
2022/08/03 03:38:09;;;;;;;6.73;3.97;;;18.00;99.90;;;;;;4148412;28;20212;-82
2022/08/03 03:40:11;;;;;;;6.83;4.30;;;17.90;99.90;;;;;;4145823;28;20232;-81
2022/08/03 03:42:15;;;;;;;5.67;4.10;;;17.90;99.90;;;;;;4148131;28;20233;-84
2022/08/03 03:44:17;;;;;;;5.47;3.70;;;17.90;99.90;;;;;;4136684;28;20205;-81
2022/08/03 03:46:19;;;;;;;6.60;4.20;;;17.90;99.90;;;;;;4163855;28;20231;-83
2022/08/03 03:48:21;;;;;;;5.33;3.90;;;17.90;99.90;;;;;;4136365;28;20233;-82
2022/08/03 03:50:24;;;;;;;6.07;4.30;;;17.90;99.90;;;;;;4145870;28;20205;-83
2022/08/03 03:52:26;;;;;;;6.23;3.80;;;17.90;99.90;;;;;;4151307;28;20251;-80
2022/08/03 03:54:40;;;;;;;6.00;3.97;;;17.90;99.90;;;;;;4149653;28;20235;-81
2022/08/03 03:56:42;;;;;;;6.83;4.43;;;17.90;99.90;;;;;;4127031;28;20224;-80
2022/08/03 03:58:45;;;;;;;6.23;4.03;;;17.90;99.90;;;;;;4150706;28;20580;-82
2022/08/03 04:00:48;;;;;;;5.70;4.20;;;17.90;99.90;;;;;;4143652;28;20213;-80
2022/08/03 04:02:50;;;;;;;5.87;3.87;;;17.90;99.90;;;;;;4145340;28;20595;-82
2022/08/03 04:11:52;;;;;;;4.80;3.83;;;17.90;99.90;;;;;;4108321;28;20271;-81
2022/08/03 04:13:58;;;;;;;6.57;4.40;;;17.80;99.90;;;;;;4140836;28;20204;-80
2022/08/03 04:16:01;;;;;;;5.83;4.40;;;17.80;99.90;;;;;;4127065;28;20236;-81
2022/08/03 04:18:04;;;;;;;5.03;4.07;;;17.80;99.90;;;;;;4125821;28;20212;-82
2022/08/03 04:20:07;;;;;;;6.73;4.10;;;17.80;99.90;;;;;;4124143;28;20448;-80
2022/08/03 04:22:11;;;;;;;5.90;4.30;;;17.80;99.90;;;;;;4125339;28;20225;-80
2022/08/03 04:24:15;;;;;;;5.43;4.23;;;17.80;99.90;;;;;;4136411;28;20259;-80
2022/08/03 04:26:20;;;;;;;6.60;4.50;;;17.80;99.90;;;;;;4145165;28;20220;-81
2022/08/03 04:28:23;;;;;;;5.53;4.40;;;17.80;99.90;;;;;;4124779;28;20208;-81
2022/08/03 04:30:28;;;;;;;5.40;4.17;;;17.90;99.90;;;;;;4139759;28;20196;-80
2022/08/03 04:32:31;;;;;;;5.37;4.00;;;17.80;99.90;;;;;;4135480;28;20236;-80
2022/08/03 04:34:33;;;;;;;5.93;4.10;;;17.80;99.90;;;;;;4148780;28;20270;-81
2022/08/03 04:36:44;;;;;;;5.83;4.23;;;17.80;99.90;;;;;;4126192;28;20228;-81
2022/08/03 04:38:55;;;;;;;6.00;4.50;;;17.80;99.90;;;;;;4142496;28;20270;-81
2022/08/03 04:40:58;;;;;;;6.40;4.60;;;17.80;99.90;;;;;;4147970;28;20228;-80
2022/08/03 04:43:01;;;;;;;4.83;4.33;;;17.80;99.90;;;;;;4142533;28;20259;-79
2022/08/03 04:45:04;;;;;;;6.10;4.17;;;17.80;99.90;;;;;;4141023;28;20220;-81
2022/08/03 04:47:08;;;;;;;5.97;4.63;;;17.80;99.90;;;;;;4135027;28;20213;-79
2022/08/03 04:49:11;;;;;;;7.07;5.03;;;17.80;99.90;;;;;;4135791;28;20211;-79
2022/08/03 04:51:13;;;;;;;6.03;4.47;;;17.80;99.90;;;;;;4139063;28;20627;-79
2022/08/03 04:53:16;;;;;;;6.60;4.90;;;17.80;99.90;;;;;;4139762;28;20228;-80
2022/08/03 04:55:26;;;;;;;6.60;4.87;;;17.80;99.90;;;;;;4135754;28;20619;-79
2022/08/03 04:57:28;;;;;;;8.50;4.90;;;17.80;99.90;;;;;;4128936;28;20588;-79
2022/08/03 04:59:30;;;;;;;8.27;5.10;;;17.80;99.90;;;;;;4121850;28;20225;-79
2022/08/03 05:01:31;;;;;;;7.40;4.80;;;17.80;99.90;;;;;;4135954;28;20616;-79
2022/08/03 05:03:35;;;;;;;6.27;4.40;;;17.80;99.90;;;;;;4121021;28;20733;-79
2022/08/03 05:05:37;;;;;;;5.03;4.20;;;17.80;99.90;;;;;;4134426;28;20662;-79
2022/08/03 05:07:39;;;;;;;6.70;4.70;;;17.80;99.90;;;;;;4137202;28;20316;-79
2022/08/03 05:09:43;;;;;;;7.80;4.70;;;17.80;99.90;;;;;;4138206;28;20295;-79
2022/08/03 05:11:44;;;;;;;5.43;4.30;;;17.90;99.90;;;;;;4140759;28;20234;-79
2022/08/03 05:13:47;;;;;;;6.90;4.50;;;17.90;99.90;;;;;;4138238;28;20572;-79
2022/08/03 05:15:49;;;;;;;6.10;4.53;;;17.90;99.90;;;;;;4105606;28;20250;-79
2022/08/03 05:17:51;;;;;;;7.07;4.63;;;17.90;99.90;;;;;;4135530;28;20216;-79
2022/08/03 05:19:54;;;;;;;5.13;4.23;;;17.90;99.90;;;;;;4122555;28;20356;-79
2022/08/03 05:21:56;;;;;;;5.80;4.10;;;17.90;99.90;;;;;;4122604;28;20233;-79
2022/08/03 05:23:58;;;;;;;6.33;4.40;;;17.90;99.90;;;;;;4144745;28;20214;-79
2022/08/03 05:26:00;;;;;;;5.10;4.43;;;17.90;99.90;;;;;;4151739;28;20212;-79
2022/08/03 05:28:02;;;;;;;6.00;4.27;;;18.00;99.90;;;;;;4148804;28;20295;-79
2022/08/03 05:30:05;;;;;;;5.97;4.77;;;18.00;99.90;;;;;;4137461;28;20287;-79
2022/08/03 05:32:06;;;;;;;6.63;4.43;;;18.00;99.90;;;;;;4132854;28;20232;-79
2022/08/03 05:34:08;;;;;;;4.97;3.83;;;18.00;99.90;;;;;;4136604;28;20372;-79
2022/08/03 05:36:11;;;;;;;5.43;4.47;;;18.10;99.90;;;;;;4119886;28;20303;-79
2022/08/03 05:38:13;;;;;;;5.90;4.63;;;18.10;99.90;;;;;;4139581;28;20554;-79
2022/08/03 05:40:15;;;;;;;10.83;4.73;;;18.10;99.90;;;;;;4118747;28;20737;-80
2022/08/03 05:42:17;;;;;;;6.20;4.40;;;18.10;99.90;;;;;;4116450;28;20273;-79
2022/08/03 05:44:19;;;;;;;5.90;4.47;;;18.10;99.90;;;;;;4135109;28;20205;-79
2022/08/03 05:46:22;;;;;;;7.67;4.60;;;18.10;99.90;;;;;;4136697;28;20240;-79
2022/08/03 05:48:23;;;;;;;7.83;4.30;;;18.20;99.90;;;;;;4138437;28;20704;-79
2022/08/03 05:50:25;;;;;;;7.77;4.90;;;18.20;99.90;;;;;;4122397;28;20308;-79
2022/08/03 05:52:29;;;;;;;7.33;4.90;;;18.20;99.90;;;;;;4132704;28;20322;-79
2022/08/03 05:54:30;;;;;;;5.70;4.10;;;18.20;99.90;;;;;;4140163;28;20247;-79
2022/08/03 05:56:32;;;;;;;5.40;4.20;;;18.30;99.90;;;;;;4136296;28;20287;-79
2022/08/03 05:58:34;;;;;;;5.87;4.10;;;18.30;99.90;;;;;;4135560;28;20216;-79
2022/08/03 06:00:36;;;;;;;5.90;3.60;;;18.30;99.90;;;;;;4134730;28;20283;-79
2022/08/03 06:02:38;;;;;;;6.83;4.00;;;18.40;99.90;;;;;;4120578;28;20242;-79
2022/08/03 06:04:40;;;;;;;5.23;3.50;;;18.40;99.90;;;;;;4131714;28;20206;-79
2022/08/03 06:06:43;;;;;;;7.27;4.00;;;18.50;99.90;;;;;;4135193;28;20214;-80
2022/08/03 06:08:47;;;;;;;5.97;3.57;;;18.50;99.90;;;;;;4126817;28;20267;-79
2022/08/03 06:10:49;;;;;;;5.43;3.40;;;18.60;99.90;;;;;;4142715;28;20208;-79
2022/08/03 06:12:51;;;;;;;5.43;3.50;;;18.60;99.90;;;;;;4137750;28;20208;-79
2022/08/03 06:14:53;;;;;;;6.80;3.50;;;18.70;99.90;;;;;;4120667;28;20249;-79
2022/08/03 06:16:55;;;;;;;7.50;3.40;;;18.80;99.90;;;;;;4137763;28;20215;-79
2022/08/03 06:18:57;;;;;;;5.67;3.30;;;18.80;99.90;;;;;;4137010;28;20296;-79
2022/08/03 06:20:59;;;;;;;4.80;3.07;;;18.90;99.90;;;;;;4138646;28;20284;-79
2022/08/03 06:23:01;;;;;;;7.17;3.00;;;18.90;99.90;;;;;;4118122;28;20215;-79
2022/08/03 06:25:06;;;;;;;6.17;3.37;;;19.00;99.90;;;;;;4117687;28;20305;-79
2022/08/03 06:27:08;;;;;;;4.53;2.80;;;19.10;99.90;;;;;;4141978;28;20288;-79
2022/08/03 06:29:09;;;;;;;3.93;2.60;;;19.20;99.90;;;;;;4145606;28;20224;-79
2022/08/03 06:31:11;;;;;;;6.33;2.50;;;19.30;99.90;;;;;;4149109;28;20223;-79
2022/08/03 06:33:13;;;;;;;6.67;2.43;;;19.30;99.90;;;;;;4129764;28;20215;-79
2022/08/03 06:35:16;;;;;;;4.80;2.67;;;19.30;99.90;;;;;;4151552;28;20225;-79
2022/08/03 06:37:17;;;;;;;4.57;2.87;;;19.40;99.90;;;;;;4131364;28;20250;-79
2022/08/03 06:39:20;;;;;;;6.13;3.03;;;19.50;99.90;;;;;;4147227;28;20238;-79
2022/08/03 06:41:23;;;;;;;9.93;2.83;;;19.60;99.90;;;;;;4103115;28;20242;-79
2022/08/03 06:43:25;;;;;;;4.40;2.73;;;19.70;99.90;;;;;;4137237;28;20231;-80
2022/08/03 06:45:27;;;;;;;3.80;2.70;;;19.80;99.90;;;;;;4123388;28;20224;-80
2022/08/03 06:47:29;;;;;;;3.73;2.77;;;19.80;99.90;;;;;;4141732;28;20704;-80
2022/08/03 06:49:31;;;;;;;3.67;2.50;;;19.80;99.90;;;;;;4144756;28;20605;-80
2022/08/03 06:51:33;;;;;;;3.03;2.40;;;19.90;99.90;;;;;;4142984;28;20317;-80
2022/08/03 06:53:35;;;;;;;3.73;2.53;;;20.00;99.90;;;;;;4146786;28;20243;-80
2022/08/03 06:55:37;;;;;;;3.63;2.60;;;20.00;99.90;;;;;;4146092;28;20255;-80
2022/08/03 06:57:40;;;;;;;2.77;2.40;;;20.10;99.90;;;;;;4131145;28;20203;-80
2022/08/03 06:59:42;;;;;;;2.63;2.30;;;20.10;99.90;;;;;;4150589;28;20207;-80
2022/08/03 07:01:44;;;;;;;4.20;1.90;;;20.10;99.90;;;;;;4167039;28;20213;-80
2022/08/03 07:03:46;;;;;;;5.40;2.07;;;20.20;99.90;;;;;;4175912;28;20224;-80
2022/08/03 07:05:48;;;;;;;3.27;2.27;;;20.30;99.90;;;;;;4172599;28;20274;-80
2022/08/03 07:07:50;;;;;;;4.37;2.20;;;20.30;99.90;;;;;;4169560;28;20222;-80
2022/08/03 07:09:52;;;;;;;6.90;2.50;;;20.40;99.90;;;;;;4162810;28;20215;-80
2022/08/03 07:11:55;;;;;;;3.83;2.17;;;20.50;99.90;;;;;;4159295;28;20273;-80
2022/08/03 07:13:59;;;;;;;2.80;2.00;;;20.60;99.90;;;;;;4159937;28;20218;-80
2022/08/03 07:16:00;;;;;;;4.93;2.00;;;20.60;99.90;;;;;;4164565;28;20286;-80
2022/08/03 07:18:02;;;;;;;3.03;2.00;;;20.70;99.90;;;;;;4157518;28;20294;-80
2022/08/03 07:20:06;;;;;;;3.40;1.97;;;20.80;99.90;;;;;;4140739;28;20223;-80
2022/08/03 07:22:09;;;;;;;2.00;1.70;;;20.90;99.90;;;;;;4134745;28;20647;-80
2022/08/03 07:24:11;;;;;;;4.70;2.20;;;20.90;99.90;;;;;;4143381;28;20215;-80
2022/08/03 07:26:13;;;;;;;1.97;1.70;;;20.90;99.90;;;;;;4157873;28;20243;-80
2022/08/03 07:28:15;;;;;;;2.97;1.87;;;21.00;99.90;;;;;;4156500;28;20298;-80
2022/08/03 07:30:18;;;;;;;2.50;1.70;;;21.30;99.90;;;;;;4158618;28;20744;-80
2022/08/03 07:32:20;;;;;;;2.23;1.77;;;21.20;99.90;;;;;;4157247;28;20662;-80
2022/08/03 07:34:22;;;;;;;3.70;2.27;;;21.30;99.90;;;;;;4154439;28;20305;-80
2022/08/03 07:36:25;;;;;;;4.50;2.20;;;21.30;99.90;;;;;;4161738;28;20222;-80
2022/08/03 07:38:28;;;;;;;2.83;2.17;;;21.40;99.90;;;;;;4159151;28;20211;-80
2022/08/03 07:40:30;;;;;;;2.93;2.03;;;21.40;99.90;;;;;;4159853;28;20314;-80
2022/08/03 07:42:32;;;;;;;3.33;2.10;;;21.50;99.90;;;;;;4139459;28;20306;-78
2022/08/03 07:44:34;;;;;;;2.83;1.90;;;21.60;99.90;;;;;;4157440;28;20744;-78
2022/08/03 07:46:37;;;;;;;2.70;2.10;;;21.60;99.90;;;;;;4154984;28;20314;-78
2022/08/03 07:48:39;;;;;;;2.60;1.90;;;21.60;99.90;;;;;;4135197;28;20628;-79
2022/08/03 07:50:41;;;;;;;2.83;1.57;;;21.70;99.90;;;;;;4137660;28;20298;-79
2022/08/03 07:52:50;;;;;;;3.57;1.63;;;21.80;99.90;;;;;;4152339;28;20330;-79
2022/08/03 07:54:52;;;;;;;4.60;1.97;;;21.80;98.70;;;;;;4150164;28;20600;-79
2022/08/03 07:56:54;;;;;;;2.57;1.93;;;21.90;97.70;;;;;;4154203;28;20287;-79
2022/08/03 07:58:56;;;;;;;4.70;2.03;;;22.10;96.20;;;;;;4151733;28;20645;-78
2022/08/03 08:00:58;;;;;;;2.40;1.73;;;22.10;96.20;;;;;;4147760;28;20314;-79
2022/08/03 08:03:01;;;;;;;3.20;2.00;;;22.20;96.70;;;;;;4141290;28;20211;-79
2022/08/03 08:05:04;;;;;;;4.40;2.50;;;22.30;97.00;;;;;;4138936;28;20270;-79
2022/08/03 08:07:06;;;;;;;5.43;2.13;;;22.40;96.40;;;;;;4122070;28;20304;-79
2022/08/03 08:09:08;;;;;;;4.77;1.90;;;22.50;94.80;;;;;;4137839;28;20263;-79
2022/08/03 08:11:10;;;;;;;3.00;1.90;;;22.60;93.80;;;;;;4141108;28;20237;-79
2022/08/03 08:13:12;;;;;;;2.70;1.80;;;22.60;93.00;;;;;;4141100;28;20278;-79
2022/08/03 08:15:14;;;;;;;3.03;1.90;;;22.70;92.40;;;;;;4143711;28;20765;-79
2022/08/03 08:17:16;;;;;;;2.97;1.77;;;22.80;92.10;;;;;;4146137;28;20252;-79
2022/08/03 08:19:19;;;;;;;1.73;1.60;;;22.80;91.60;;;;;;4140353;28;20217;-79
2022/08/03 08:21:21;;;;;;;2.80;2.00;;;22.90;90.70;;;;;;4116150;28;20235;-79
2022/08/03 08:23:23;;;;;;;2.50;1.90;;;23.00;90.30;;;;;;4134572;28;20233;-79
2022/08/03 08:25:25;;;;;;;1.87;1.60;;;23.10;90.10;;;;;;4117943;28;20221;-79
2022/08/03 08:27:28;;;;;;;2.30;1.80;;;23.10;90.20;;;;;;4139013;28;20209;-79
2022/08/03 08:29:29;;;;;;;3.83;1.73;;;23.20;90.10;;;;;;4134316;28;20307;-79
2022/08/03 08:31:31;;;;;;;2.13;1.60;;;23.30;83.50;;;;;;4135120;28;20238;-79
2022/08/03 08:33:34;;;;;;;2.53;2.00;;;23.50;75.00;;;;;;4140974;28;20253;-79
2022/08/03 08:35:38;;;;;;;3.97;1.83;;;23.60;76.60;;;;;;4134348;28;20286;-78
2022/08/03 08:37:40;;;;;;;3.93;1.73;;;23.70;75.30;;;;;;4142510;28;20238;-79
2022/08/03 08:39:42;;;;;;;2.27;1.73;;;23.70;75.00;;;;;;4148962;28;20238;-81
2022/08/03 08:41:44;;;;;;;2.63;1.70;;;23.80;73.00;;;;;;4144621;28;20326;-81
2022/08/03 08:43:46;;;;;;;3.57;1.57;;;23.90;72.10;;;;;;4149460;28;20230;-82
2022/08/03 08:45:50;;;;;;;1.70;1.60;;;23.90;72.00;;;;;;4142204;28;20230;-80
2022/08/03 08:47:53;;;;;;;3.07;2.10;;;24.10;68.80;;;;;;4131355;28;20225;-81
2022/08/03 08:49:57;;;;;;;2.67;1.87;;;24.10;70.50;;;;;;4151492;28;20302;-82
2022/08/03 08:52:03;;;;;;;2.57;2.10;;;24.20;71.70;;;;;;4145768;28;20843;-81
2022/08/03 08:54:08;;;;;;;4.13;1.80;;;24.30;72.10;;;;;;4143629;28;20588;-82
2022/08/03 08:56:14;;;;;;;3.40;1.77;;;24.30;70.70;;;;;;4120494;28;20295;-81
2022/08/03 08:58:19;;;;;;;2.90;1.93;;;24.50;69.90;;;;;;4124443;28;20216;-80
2022/08/03 09:00:21;;;;;;;1.90;1.70;;;24.50;68.40;;;;;;4150852;28;20240;-81
2022/08/03 09:02:23;;;;;;;2.20;1.70;;;24.60;68.40;;;;;;4145138;28;20232;-80
2022/08/03 09:04:25;;;;;;;2.60;1.80;;;24.60;67.80;;;;;;4149045;28;20216;-81
2022/08/03 09:06:27;;;;;;;2.90;2.07;;;24.70;67.70;;;;;;4153550;28;20225;-81
2022/08/03 09:08:31;;;;;;;6.97;2.23;;;24.70;68.70;;;;;;4150011;28;20216;-80
2022/08/03 09:10:34;;;;;;;3.63;1.80;;;24.80;67.80;;;;;;4153013;28;20267;-83
2022/08/03 09:12:39;;;;;;;4.40;1.93;;;24.90;66.30;;;;;;4145956;28;20260;-82
2022/08/03 09:14:41;;;;;;;3.20;1.70;;;25.10;55.80;;;;;;4144705;28;20223;-81
2022/08/03 09:16:58;;;;;;;3.90;1.93;;;25.20;57.20;;;;;;4156355;28;20212;-82
2022/08/03 09:19:12;;;;;;;2.13;1.80;;;25.30;50.90;;;;;;4136638;28;20272;-83
2022/08/03 09:21:17;;;;;;;2.57;2.13;;;25.40;51.70;;;;;;4154960;28;20241;-83
2022/08/03 09:23:44;;;;;;;5.10;1.80;;;25.40;51.90;;;;;;4156623;28;20266;-82
2022/08/03 09:25:46;;;;;;;2.07;1.67;;;25.60;52.00;;;;;;4140430;28;20208;-81
2022/08/03 09:27:48;;;;;;;2.13;1.77;;;25.70;50.00;;;;;;4160753;28;20239;-81
2022/08/03 09:29:51;;;;;;;1.80;1.60;;;25.80;49.60;;;;;;4156060;28;20216;-81
2022/08/03 09:32:02;;;;;;;2.27;1.83;;;25.90;48.10;;;;;;4148633;28;20232;-81
2022/08/03 09:34:06;;;;;;;1.80;1.67;;;26.00;48.80;;;;;;4122750;28;20213;-82
2022/08/03 09:36:08;;;;;;;3.60;1.80;;;26.10;49.20;;;;;;4139513;28;20220;-82
2022/08/03 09:38:14;;;;;;;1.90;1.80;;;26.10;48.60;;;;;;4137556;28;20339;-81
2022/08/03 09:40:35;;;;;;;2.10;1.90;;;26.20;48.60;;;;;;4139582;28;20270;-81
2022/08/03 09:42:38;;;;;;;3.47;1.70;;;26.30;49.30;;;;;;4137730;28;20231;-82
2022/08/03 09:44:41;;;;;;;2.17;1.90;;;26.30;49.60;;;;;;4133036;28;20208;-82
2022/08/03 09:46:50;;;;;;;2.97;1.70;;;26.40;49.70;;;;;;4148468;28;20215;-81
2022/08/03 09:48:52;;;;;;;3.67;1.80;;;26.40;50.60;;;;;;4146267;28;20224;-81
2022/08/03 09:50:56;;;;;;;3.13;1.90;;;26.50;48.10;;;;;;4145716;28;20733;-81
2022/08/03 09:53:02;;;;;;;3.03;1.90;;;26.60;47.30;;;;;;4137327;28;20204;-81
2022/08/03 09:55:10;;;;;;;3.03;2.00;;;26.70;47.30;;;;;;4141751;28;20216;-83
2022/08/03 09:57:22;;;;;;;3.67;1.77;;;26.80;47.80;;;;;;4143941;28;20249;-81
2022/08/03 09:59:27;;;;;;;2.60;1.87;;;26.80;47.80;;;;;;4134468;28;20204;-81
2022/08/03 10:01:33;;;;;;;2.10;1.87;;;26.90;48.10;;;;;;4141216;28;20227;-82
2022/08/03 10:03:37;;;;;;;3.10;1.97;;;27.00;47.90;;;;;;4161791;28;20214;-81
2022/08/03 10:05:43;;;;;;;2.07;1.87;;;27.10;47.30;;;;;;4155107;28;20215;-81
2022/08/03 10:07:47;;;;;;;2.13;1.80;;;27.20;46.10;;;;;;4146751;28;20263;-82
2022/08/03 10:09:55;;;;;;;1.70;1.60;;;27.30;46.20;;;;;;4140974;28;20273;-81
2022/08/03 10:11:58;;;;;;;2.93;1.90;;;27.40;46.80;;;;;;4158382;28;20219;-83
2022/08/03 10:14:04;;;;;;;2.27;1.80;;;27.40;43.90;;;;;;4161591;28;20277;-82
2022/08/03 10:16:06;;;;;;;2.33;1.90;;;27.60;43.50;;;;;;4154922;28;20204;-82
2022/08/03 10:18:08;;;;;;;2.73;1.80;;;27.70;43.00;;;;;;4147026;28;20938;-81
2022/08/03 10:20:11;;;;;;;1.87;1.70;;;27.70;43.40;;;;;;4165787;28;20242;-82
2022/08/03 10:22:15;;;;;;;2.27;1.87;;;27.80;42.90;;;;;;4165328;28;20224;-82
2022/08/03 10:24:20;;;;;;;2.03;1.83;;;27.90;42.60;;;;;;4167442;28;20202;-83
2022/08/03 10:26:26;;;;;;;1.77;1.67;;;28.00;42.70;;;;;;4164567;28;20238;-82
2022/08/03 10:28:35;;;;;;;1.83;1.53;;;28.00;42.60;;;;;;4171178;28;20210;-83
2022/08/03 10:30:41;;;;;;;1.50;1.40;;;28.10;42.40;;;;;;4164949;28;20271;-83
2022/08/03 10:32:48;;;;;;;2.03;1.77;;;28.20;41.70;;;;;;4174537;28;20230;-83
2022/08/03 10:34:51;;;;;;;1.80;1.70;;;28.30;41.50;;;;;;4176768;28;20207;-84
2022/08/03 10:36:58;;;;;;;1.50;1.40;;;28.40;42.20;;;;;;4177023;28;20215;-82
2022/08/03 10:39:01;;;;;;;1.63;1.53;;;28.50;41.70;;;;;;4157559;28;20219;-81
2022/08/03 10:41:05;;;;;;;1.80;1.70;;;28.60;41.40;;;;;;4154770;28;20311;-81
2022/08/03 10:43:10;;;;;;;1.83;1.40;;;28.70;41.70;;;;;;4161178;28;20592;-81
2022/08/03 10:45:18;;;;;;;2.03;1.60;;;28.80;41.60;;;;;;4154186;28;20298;-81
2022/08/03 10:47:21;;;;;;;1.90;1.57;;;28.80;40.40;;;;;;4157067;28;20238;-80
2022/08/03 10:49:24;;;;;;;1.73;1.63;;;29.00;39.00;;;;;;4162694;28;20235;-81
2022/08/03 10:51:30;;;;;;;2.17;1.50;;;29.00;39.10;;;;;;4163306;28;20230;-81